VIR4 KJFK-EGLL
Flight info
| Callsign | VIR4 |
|---|---|
| Flight time | N/A |
| Altitude | 37000 |
| Route | DCT MERIT DCT HFD DCT PUT DCT TUSKY DCT ALLRY/M085F390 DCT 51N050W 53N040W 54N030W 54N020W DCT MALOT DCT GISTI/N0484F390 DCT ENJEX DCT AVZAC DCT INFEC DCT JETZI DCT AMFUL DCT ORZEB/N0467F230 P2 SIRIC SIRIC1H |
| Aircraft | A35K/H-SDE2E3GHIJ3J4J5LM1ORWXY/LB1D1 |
Departure
| Time | 2026-05-08 18:00 |
|---|---|
| Airport | John F. Kennedy International Airport (KJFK) |
Arrival
| Time | N/A |
|---|---|
| Airport | London Heathrow Airport (EGLL) |
| Time | Latitude | Longitude | Altitude | Speed | Heading |
|---|---|---|---|---|---|
| 2026-05-08 17:39 | 40.64075 | -73.78100 | 26 ft | 0 kts | 239° |
| 2026-05-08 17:48 | 40.64079 | -73.78093 | 26 ft | 4 kts | 239° |
| 2026-05-08 17:48 | 40.64092 | -73.78062 | 32 ft | 4 kts | 239° |
| 2026-05-08 17:48 | 40.64105 | -73.78034 | 26 ft | 4 kts | 232° |
| 2026-05-08 17:49 | 40.64120 | -73.78019 | 31 ft | 4 kts | 152° |
| 2026-05-08 17:49 | 40.64140 | -73.78041 | 32 ft | 4 kts | 142° |
| 2026-05-08 17:49 | 40.64148 | -73.78049 | 26 ft | 0 kts | 151° |
| 2026-05-08 17:55 | 40.64147 | -73.78048 | 26 ft | 1 kts | 151° |
| 2026-05-08 17:55 | 40.64078 | -73.77998 | 26 ft | 24 kts | 151° |
| 2026-05-08 17:55 | 40.63888 | -73.77929 | 26 ft | 30 kts | 169° |
| 2026-05-08 17:56 | 40.63684 | -73.77892 | 26 ft | 28 kts | 168° |
| 2026-05-08 17:56 | 40.63565 | -73.77814 | 27 ft | 16 kts | 128° |
| 2026-05-08 17:56 | 40.63559 | -73.77691 | 30 ft | 16 kts | 53° |
| 2026-05-08 17:56 | 40.63603 | -73.77549 | 27 ft | 20 kts | 104° |
| 2026-05-08 17:57 | 40.63520 | -73.77339 | 27 ft | 29 kts | 120° |
| 2026-05-08 17:57 | 40.63411 | -73.77100 | 32 ft | 31 kts | 121° |
| 2026-05-08 17:57 | 40.63278 | -73.76952 | 31 ft | 26 kts | 175° |
| 2026-05-08 17:57 | 40.63106 | -73.76969 | 30 ft | 20 kts | 201° |
| 2026-05-08 17:58 | 40.63010 | -73.77033 | 30 ft | 15 kts | 199° |
| 2026-05-08 17:58 | 40.62934 | -73.77074 | 27 ft | 10 kts | 219° |
| 2026-05-08 17:58 | 40.62875 | -73.77133 | 28 ft | 11 kts | 217° |
| 2026-05-08 17:58 | 40.62835 | -73.77213 | 28 ft | 10 kts | 274° |
| 2026-05-08 17:59 | 40.62861 | -73.77303 | 29 ft | 11 kts | 297° |
| 2026-05-08 17:59 | 40.62885 | -73.77359 | 29 ft | 0 kts | 301° |
| 2026-05-08 17:59 | 40.62886 | -73.77362 | 29 ft | 4 kts | 301° |
| 2026-05-08 18:00 | 40.62955 | -73.77515 | 30 ft | 60 kts | 299° |
| 2026-05-08 18:00 | 40.64135 | -73.80187 | 817 ft | 194 kts | 298° |
| 2026-05-08 18:00 | 40.64865 | -73.81914 | 1389 ft | 240 kts | 297° |
| 2026-05-08 18:01 | 40.65499 | -73.84166 | 1718 ft | 285 kts | 275° |
| 2026-05-08 18:01 | 40.65115 | -73.86776 | 2533 ft | 298 kts | 245° |
| 2026-05-08 18:01 | 40.64288 | -73.88197 | 3347 ft | 295 kts | 225° |
| 2026-05-08 18:01 | 40.62498 | -73.89445 | 4559 ft | 295 kts | 198° |
| 2026-05-08 18:02 | 40.60457 | -73.89446 | 5681 ft | 296 kts | 175° |
| 2026-05-08 18:02 | 40.58476 | -73.88815 | 6797 ft | 292 kts | 167° |
| 2026-05-08 18:02 | 40.56709 | -73.87507 | 7784 ft | 297 kts | 142° |
| 2026-05-08 18:02 | 40.55455 | -73.85307 | 8551 ft | 308 kts | 116° |
| 2026-05-08 18:03 | 40.54966 | -73.82548 | 9284 ft | 315 kts | 90° |
| 2026-05-08 18:03 | 40.55162 | -73.79675 | 10023 ft | 317 kts | 78° |
| 2026-05-08 18:03 | 40.55664 | -73.76843 | 10687 ft | 318 kts | 64° |
| 2026-05-08 18:03 | 40.56787 | -73.74383 | 11332 ft | 311 kts | 39° |
| 2026-05-08 18:04 | 40.58392 | -73.72561 | 12093 ft | 302 kts | 27° |
| 2026-05-08 18:04 | 40.60145 | -73.71062 | 12813 ft | 300 kts | 20° |
| 2026-05-08 18:04 | 40.61969 | -73.69741 | 13578 ft | 300 kts | 18° |
| 2026-05-08 18:04 | 40.63837 | -73.68472 | 14205 ft | 304 kts | 17° |
| 2026-05-08 18:05 | 40.65733 | -73.67197 | 14816 ft | 308 kts | 18° |
| 2026-05-08 18:05 | 40.67650 | -73.65881 | 15439 ft | 313 kts | 18° |
| 2026-05-08 18:05 | 40.69584 | -73.64520 | 16067 ft | 318 kts | 18° |
| 2026-05-08 18:05 | 40.71540 | -73.63117 | 16691 ft | 322 kts | 19° |
| 2026-05-08 18:06 | 40.73517 | -73.61679 | 17287 ft | 327 kts | 19° |
| 2026-05-08 18:06 | 40.75526 | -73.60208 | 17852 ft | 332 kts | 19° |
| 2026-05-08 18:06 | 40.77562 | -73.58709 | 18383 ft | 338 kts | 20° |
| 2026-05-08 18:06 | 40.79630 | -73.57188 | 18905 ft | 341 kts | 19° |
| 2026-05-08 18:07 | 40.81707 | -73.55657 | 19524 ft | 342 kts | 19° |
| 2026-05-08 18:07 | 40.83774 | -73.54130 | 20101 ft | 343 kts | 18° |
| 2026-05-08 18:07 | 40.85862 | -73.52592 | 20592 ft | 346 kts | 18° |
| 2026-05-08 18:07 | 40.87995 | -73.51022 | 21126 ft | 350 kts | 18° |
| 2026-05-08 18:08 | 40.90122 | -73.49456 | 21662 ft | 352 kts | 18° |
| 2026-05-08 18:08 | 40.92251 | -73.47887 | 22174 ft | 356 kts | 18° |
| 2026-05-08 18:08 | 40.94422 | -73.46288 | 22679 ft | 359 kts | 18° |
| 2026-05-08 18:08 | 40.96605 | -73.44681 | 23183 ft | 362 kts | 18° |
| 2026-05-08 18:09 | 40.98816 | -73.43052 | 23649 ft | 365 kts | 18° |
| 2026-05-08 18:09 | 41.01037 | -73.41413 | 24087 ft | 368 kts | 18° |
| 2026-05-08 18:09 | 41.03286 | -73.39750 | 24522 ft | 370 kts | 18° |
| 2026-05-08 18:09 | 41.05536 | -73.38082 | 24937 ft | 372 kts | 18° |
| 2026-05-08 18:10 | 41.07764 | -73.36434 | 25341 ft | 375 kts | 18° |
| 2026-05-08 18:10 | 41.10052 | -73.34740 | 25766 ft | 378 kts | 18° |
| 2026-05-08 18:10 | 41.12322 | -73.33056 | 26187 ft | 380 kts | 18° |
| 2026-05-08 18:10 | 41.14634 | -73.31340 | 26601 ft | 383 kts | 17° |
| 2026-05-08 18:11 | 41.16962 | -73.29609 | 27018 ft | 385 kts | 17° |
| 2026-05-08 18:11 | 41.19267 | -73.27892 | 27476 ft | 386 kts | 17° |
| 2026-05-08 18:11 | 41.21592 | -73.26160 | 27909 ft | 388 kts | 17° |
| 2026-05-08 18:11 | 41.23959 | -73.24398 | 28286 ft | 392 kts | 17° |
| 2026-05-08 18:12 | 41.26276 | -73.22676 | 28614 ft | 396 kts | 17° |
| 2026-05-08 18:12 | 41.28722 | -73.20857 | 28941 ft | 400 kts | 17° |
| 2026-05-08 18:12 | 41.31160 | -73.19039 | 29268 ft | 403 kts | 17° |
| 2026-05-08 18:12 | 41.33614 | -73.17182 | 29585 ft | 411 kts | 19° |
| 2026-05-08 18:13 | 41.36004 | -73.14996 | 29928 ft | 424 kts | 26° |
| 2026-05-08 18:13 | 41.38252 | -73.12306 | 30220 ft | 440 kts | 36° |
| 2026-05-08 18:13 | 41.40232 | -73.09110 | 30469 ft | 457 kts | 46° |
| 2026-05-08 18:13 | 41.41975 | -73.05517 | 30735 ft | 464 kts | 50° |
| 2026-05-08 18:14 | 41.43642 | -73.01812 | 30955 ft | 470 kts | 51° |
| 2026-05-08 18:14 | 41.45287 | -72.98026 | 31187 ft | 474 kts | 52° |
| 2026-05-08 18:14 | 41.46932 | -72.94198 | 31430 ft | 478 kts | 52° |
| 2026-05-08 18:14 | 41.48598 | -72.90335 | 31617 ft | 482 kts | 52° |
| 2026-05-08 18:15 | 41.50284 | -72.86447 | 31838 ft | 486 kts | 52° |
| 2026-05-08 18:15 | 41.51987 | -72.82537 | 32098 ft | 488 kts | 52° |
| 2026-05-08 18:15 | 41.53701 | -72.78612 | 32314 ft | 490 kts | 52° |
| 2026-05-08 18:15 | 41.55431 | -72.74660 | 32502 ft | 495 kts | 52° |
| 2026-05-08 18:16 | 41.57174 | -72.70682 | 32771 ft | 497 kts | 52° |
| 2026-05-08 18:16 | 41.58928 | -72.66673 | 32999 ft | 500 kts | 52° |
| 2026-05-08 18:16 | 41.60684 | -72.62655 | 33227 ft | 503 kts | 52° |
| 2026-05-08 18:16 | 41.62448 | -72.58608 | 33434 ft | 506 kts | 52° |